Time;durP1;ratioP1;P1;durP2;ratioP2;P2;SDS_P1;SDS_P2;PMS_P1;PMS_P2;Temp;Humidity;BMP_temperature;BMP_pressure;BME280_temperature;BME280_humidity;BME280_pressure;Samples;Min_cycle;Max_cycle;Signal;HPM_P1;HPM_P2
2021/10/03 00:01:33;;;;;;;1.33;1.23;;;17.40;91.30;;;;;;5071930;28;20052;-63
2021/10/03 00:04:00;;;;;;;1.60;1.33;;;17.30;91.00;;;;;;5071420;28;20110;-63
2021/10/03 00:06:26;;;;;;;1.20;1.10;;;17.30;91.00;;;;;;5071195;28;20047;-61
2021/10/03 00:08:54;;;;;;;1.38;1.25;;;17.30;91.00;;;;;;5070969;28;20491;-62
2021/10/03 00:11:21;;;;;;;1.17;1.08;;;17.40;91.00;;;;;;5070775;28;20509;-61
2021/10/03 00:13:47;;;;;;;1.48;1.30;;;17.40;91.00;;;;;;5071672;28;20467;-63
2021/10/03 00:16:14;;;;;;;1.20;1.10;;;17.40;90.90;;;;;;5071595;28;20040;-61
2021/10/03 00:18:39;;;;;;;1.45;1.33;;;17.40;90.90;;;;;;5071095;28;20392;-59
2021/10/03 00:21:07;;;;;;;1.30;1.20;;;17.40;90.90;;;;;;5071386;28;20053;-60
2021/10/03 00:23:34;;;;;;;1.20;1.10;;;17.40;91.10;;;;;;5071135;28;20092;-62
2021/10/03 00:26:00;;;;;;;1.30;1.20;;;17.40;90.80;;;;;;5070742;28;20083;-62
2021/10/03 00:28:26;;;;;;;1.52;1.20;;;17.40;90.80;;;;;;5070470;28;20083;-62
2021/10/03 00:30:52;;;;;;;1.50;1.30;;;17.40;90.70;;;;;;5070985;28;20056;-62
2021/10/03 00:33:17;;;;;;;1.45;1.20;;;17.40;90.70;;;;;;5079606;28;20403;-63
2021/10/03 00:35:43;;;;;;;1.20;1.10;;;17.40;90.70;;;;;;5093266;28;20386;-61
2021/10/03 00:38:09;;;;;;;1.42;1.20;;;17.40;90.60;;;;;;5093117;28;20434;-63
2021/10/03 00:40:38;;;;;;;1.38;1.27;;;17.40;90.60;;;;;;5093556;28;20040;-62
2021/10/03 00:43:05;;;;;;;1.35;1.00;;;17.40;90.60;;;;;;5092834;28;20051;-63
2021/10/03 00:45:32;;;;;;;1.40;1.10;;;17.40;90.50;;;;;;5092210;28;20043;-62
2021/10/03 00:47:59;;;;;;;1.45;1.08;;;17.40;90.50;;;;;;5093336;28;20056;-62
2021/10/03 00:50:26;;;;;;;1.00;0.90;;;17.40;90.40;;;;;;5093121;28;20044;-61
2021/10/03 00:52:52;;;;;;;1.35;1.20;;;17.40;90.40;;;;;;5093159;28;20044;-59
2021/10/03 00:55:20;;;;;;;1.15;1.02;;;17.40;90.40;;;;;;5093232;28;20066;-62
2021/10/03 00:57:49;;;;;;;2.22;1.20;;;17.50;90.30;;;;;;5092768;28;20044;-59
2021/10/03 01:00:16;;;;;;;1.20;1.10;;;17.40;90.30;;;;;;5092971;28;20036;-59
2021/10/03 01:02:42;;;;;;;1.23;1.10;;;17.40;90.50;;;;;;5093156;28;20495;-59
2021/10/03 01:05:08;;;;;;;1.08;1.00;;;17.40;90.20;;;;;;5091292;28;20460;-63
2021/10/03 01:07:36;;;;;;;1.05;0.98;;;17.40;90.10;;;;;;5092517;28;20040;-62
2021/10/03 01:10:04;;;;;;;1.88;1.10;;;17.50;90.10;;;;;;5093161;28;20114;-61
2021/10/03 01:12:30;;;;;;;1.20;1.10;;;17.50;90.10;;;;;;5093173;28;20040;-63
2021/10/03 01:14:56;;;;;;;1.30;1.10;;;17.50;90.00;;;;;;5092367;28;20101;-62
2021/10/03 01:17:21;;;;;;;1.00;0.90;;;17.50;90.00;;;;;;5092580;28;20281;-61
2021/10/03 01:19:47;;;;;;;0.88;0.88;;;17.50;89.90;;;;;;5092933;28;20040;-60
2021/10/03 01:22:13;;;;;;;1.13;1.00;;;17.50;89.80;;;;;;5092855;28;20095;-61
2021/10/03 01:24:39;;;;;;;1.60;1.15;;;17.50;89.80;;;;;;5092510;28;20052;-59
2021/10/03 01:27:05;;;;;;;1.40;1.00;;;17.50;89.70;;;;;;5092966;28;20044;-57
2021/10/03 01:29:31;;;;;;;1.10;1.00;;;17.50;89.60;;;;;;5091713;28;20031;-59
2021/10/03 01:31:57;;;;;;;1.70;1.05;;;17.50;89.60;;;;;;5092550;28;20441;-58
2021/10/03 01:34:23;;;;;;;0.98;0.98;;;17.50;89.60;;;;;;5092428;28;20115;-62
2021/10/03 01:36:49;;;;;;;0.90;0.90;;;17.50;89.50;;;;;;5090704;28;20096;-63
2021/10/03 01:39:15;;;;;;;0.75;0.75;;;17.50;89.50;;;;;;5091851;28;20044;-63
2021/10/03 01:41:41;;;;;;;1.23;1.05;;;17.50;89.40;;;;;;5092809;28;20047;-63
2021/10/03 01:44:07;;;;;;;1.95;1.10;;;17.50;89.40;;;;;;5090761;28;20048;-61
2021/10/03 01:46:33;;;;;;;0.90;0.90;;;17.50;89.40;;;;;;5091648;28;20036;-63
2021/10/03 01:48:58;;;;;;;1.52;0.90;;;17.50;89.30;;;;;;5092255;28;20036;-62
2021/10/03 01:51:25;;;;;;;0.98;0.90;;;17.50;89.30;;;;;;5092511;28;20043;-62
2021/10/03 01:53:54;;;;;;;1.05;0.98;;;17.50;89.20;;;;;;5091738;28;20055;-61
2021/10/03 01:56:22;;;;;;;1.00;0.90;;;17.60;89.20;;;;;;5092362;28;20119;-61
2021/10/03 01:58:55;;;;;;;0.98;0.88;;;17.50;89.10;;;;;;5092451;28;20040;-62
2021/10/03 02:01:25;;;;;;;1.20;1.00;;;17.50;89.00;;;;;;5091514;28;20539;-61
2021/10/03 02:03:51;;;;;;;0.98;0.90;;;17.50;88.90;;;;;;5091708;28;20036;-62
2021/10/03 02:06:17;;;;;;;0.98;0.90;;;17.50;89.00;;;;;;5091094;28;20492;-61
2021/10/03 02:08:43;;;;;;;0.98;0.98;;;17.50;88.90;;;;;;5091551;28;20059;-62
2021/10/03 02:11:09;;;;;;;0.80;0.80;;;17.50;88.90;;;;;;5092039;28;20048;-61
2021/10/03 02:13:35;;;;;;;1.10;0.93;;;17.50;88.80;;;;;;5091636;28;20408;-61
2021/10/03 02:16:01;;;;;;;1.17;1.00;;;17.50;88.80;;;;;;5091545;28;20514;-60
2021/10/03 02:18:39;;;;;;;1.20;0.90;;;17.60;88.80;;;;;;5091438;28;20032;-61
2021/10/03 02:21:06;;;;;;;0.70;0.70;;;17.60;88.70;;;;;;5091826;28;20051;-59
2021/10/03 02:23:34;;;;;;;0.93;0.93;;;17.60;88.70;;;;;;5091547;28;20467;-60
2021/10/03 02:25:59;;;;;;;2.35;0.85;;;17.60;88.60;;;;;;5090381;28;20047;-58
2021/10/03 02:28:27;;;;;;;0.93;0.88;;;17.60;88.60;;;;;;5092055;28;20028;-60
2021/10/03 02:31:00;;;;;;;0.90;0.80;;;17.50;88.50;;;;;;5091892;28;20127;-61
2021/10/03 02:33:26;;;;;;;1.23;0.90;;;17.60;88.50;;;;;;5091459;28;20043;-61
2021/10/03 02:35:53;;;;;;;0.93;0.80;;;17.60;88.40;;;;;;5091346;28;20051;-58
2021/10/03 02:38:21;;;;;;;1.75;0.88;;;17.60;88.40;;;;;;5091373;28;20032;-59
2021/10/03 02:40:50;;;;;;;1.00;0.75;;;17.50;88.30;;;;;;5091462;28;20048;-59
2021/10/03 02:43:16;;;;;;;1.13;1.00;;;17.60;88.10;;;;;;5091373;28;20108;-60
2021/10/03 02:45:46;;;;;;;0.90;0.90;;;17.60;88.10;;;;;;5091425;28;20065;-61
2021/10/03 02:48:13;;;;;;;1.92;0.95;;;17.60;88.00;;;;;;5091165;28;20115;-58
2021/10/03 02:50:39;;;;;;;0.95;0.90;;;17.60;87.80;;;;;;5089932;28;20129;-61
2021/10/03 02:53:09;;;;;;;0.70;0.70;;;17.60;87.70;;;;;;5091542;28;20156;-59
2021/10/03 02:55:36;;;;;;;1.05;0.90;;;17.60;87.60;;;;;;5089098;28;20085;-61
2021/10/03 02:58:03;;;;;;;0.80;0.80;;;17.60;87.50;;;;;;5071407;28;20052;-61
2021/10/03 03:00:28;;;;;;;0.80;0.80;;;17.60;87.50;;;;;;5090518;28;20111;-60
2021/10/03 03:02:54;;;;;;;0.52;0.52;;;17.60;87.50;;;;;;5091541;28;20119;-60
2021/10/03 03:05:20;;;;;;;0.60;0.60;;;17.70;87.50;;;;;;5090411;28;20511;-60
2021/10/03 03:07:46;;;;;;;3.13;1.08;;;17.60;87.40;;;;;;5090757;28;20054;-61
2021/10/03 03:10:12;;;;;;;2.42;1.38;;;17.70;87.50;;;;;;5091186;28;20055;-61
2021/10/03 03:12:37;;;;;;;1.00;0.90;;;17.70;87.50;;;;;;5091339;28;20059;-60
2021/10/03 03:15:08;;;;;;;0.80;0.80;;;17.70;87.50;;;;;;5091255;28;20115;-60
2021/10/03 03:17:35;;;;;;;0.60;0.60;;;17.70;87.50;;;;;;5090729;28;20170;-60
2021/10/03 03:20:01;;;;;;;0.95;0.90;;;17.70;87.50;;;;;;5091067;28;20047;-59
2021/10/03 03:22:27;;;;;;;0.73;0.73;;;17.70;87.40;;;;;;5090509;28;20111;-60
2021/10/03 03:24:53;;;;;;;0.85;0.80;;;17.70;87.30;;;;;;5091271;28;20125;-60
2021/10/03 03:27:19;;;;;;;0.70;0.70;;;17.70;87.30;;;;;;5091079;28;20460;-59
2021/10/03 03:29:45;;;;;;;0.75;0.70;;;17.70;87.30;;;;;;5094844;28;20051;-60
2021/10/03 03:32:11;;;;;;;1.20;0.60;;;17.70;87.20;;;;;;5094937;28;20036;-59
2021/10/03 03:34:37;;;;;;;1.58;1.08;;;17.70;87.10;;;;;;5095010;28;20491;-60
2021/10/03 03:37:03;;;;;;;0.70;0.70;;;17.70;87.10;;;;;;5094499;28;20506;-58
2021/10/03 03:39:29;;;;;;;1.20;0.70;;;17.70;86.80;;;;;;5094730;28;20044;-60
2021/10/03 03:41:55;;;;;;;0.70;0.70;;;17.70;86.80;;;;;;5094764;28;20040;-59
2021/10/03 03:44:21;;;;;;;0.80;0.80;;;17.70;86.70;;;;;;5094461;28;20433;-60
2021/10/03 03:46:46;;;;;;;0.68;0.68;;;17.70;86.70;;;;;;5094651;28;20131;-60
2021/10/03 03:49:13;;;;;;;0.77;0.75;;;17.70;86.60;;;;;;5094711;28;20036;-59
2021/10/03 03:51:38;;;;;;;0.70;0.70;;;17.70;86.60;;;;;;5094313;28;20040;-60
2021/10/03 03:54:04;;;;;;;1.10;0.60;;;17.70;86.50;;;;;;5093636;28;20047;-60
2021/10/03 03:56:29;;;;;;;0.70;0.70;;;17.60;86.50;;;;;;5094753;28;20082;-60
2021/10/03 03:58:55;;;;;;;1.92;0.75;;;17.70;86.50;;;;;;5094522;28;20055;-60
2021/10/03 04:01:21;;;;;;;0.80;0.80;;;17.60;86.40;;;;;;5092972;28;20563;-59
2021/10/03 04:03:47;;;;;;;0.82;0.77;;;17.70;86.60;;;;;;5094412;28;20053;-60
2021/10/03 04:06:13;;;;;;;1.10;0.80;;;17.70;86.60;;;;;;5093695;28;20040;-60
2021/10/03 04:08:39;;;;;;;1.55;1.10;;;17.70;87.20;;;;;;5092967;28;20054;-60
2021/10/03 04:11:05;;;;;;;1.17;0.80;;;17.70;86.90;;;;;;5094318;28;20123;-60
2021/10/03 04:13:32;;;;;;;4.50;1.38;;;17.70;87.10;;;;;;5092779;28;20345;-60
2021/10/03 04:15:58;;;;;;;1.00;0.80;;;17.70;87.50;;;;;;5093956;28;20107;-59
2021/10/03 04:18:24;;;;;;;1.73;0.93;;;17.70;88.50;;;;;;5094020;28;20032;-60
2021/10/03 04:20:49;;;;;;;0.90;0.73;;;17.70;88.10;;;;;;5093769;28;20043;-59
2021/10/03 04:23:15;;;;;;;0.70;0.70;;;17.70;88.20;;;;;;5093278;28;20101;-60
2021/10/03 04:25:40;;;;;;;5.30;1.83;;;17.70;88.40;;;;;;5093502;28;20122;-59
2021/10/03 04:28:06;;;;;;;8.10;1.67;;;17.70;88.80;;;;;;5093619;28;20090;-60
2021/10/03 04:30:32;;;;;;;3.67;1.23;;;17.70;89.10;;;;;;5094000;28;20040;-59
2021/10/03 04:32:58;;;;;;;0.80;0.80;;;17.70;89.30;;;;;;5093479;28;20072;-59
2021/10/03 04:35:24;;;;;;;0.75;0.60;;;17.60;89.40;;;;;;5093550;28;20079;-60
2021/10/03 04:37:50;;;;;;;0.60;0.60;;;17.60;89.40;;;;;;5091752;28;20447;-60
2021/10/03 04:40:15;;;;;;;0.70;0.70;;;17.70;89.50;;;;;;5092705;28;20040;-60
2021/10/03 04:42:41;;;;;;;1.10;0.82;;;17.60;89.50;;;;;;5093510;28;20036;-60
2021/10/03 04:45:08;;;;;;;0.70;0.70;;;17.60;89.60;;;;;;5093933;28;20062;-60
2021/10/03 04:47:33;;;;;;;0.70;0.68;;;17.60;89.60;;;;;;5093289;28;20506;-60
2021/10/03 04:50:00;;;;;;;1.60;0.98;;;17.60;89.60;;;;;;5092764;28;20044;-61
2021/10/03 04:52:26;;;;;;;0.95;0.80;;;17.60;89.60;;;;;;5093065;28;20426;-59
2021/10/03 04:54:52;;;;;;;1.00;0.57;;;17.60;89.60;;;;;;5091427;28;20051;-59
2021/10/03 04:57:18;;;;;;;0.80;0.80;;;17.60;89.80;;;;;;5092707;28;20092;-60
2021/10/03 04:59:44;;;;;;;0.82;0.73;;;17.60;89.90;;;;;;5093136;28;20046;-59
2021/10/03 05:02:10;;;;;;;0.70;0.70;;;17.60;90.00;;;;;;5092963;28;20392;-60
2021/10/03 05:04:36;;;;;;;1.38;0.85;;;17.60;90.00;;;;;;5092684;28;20046;-60
2021/10/03 05:07:02;;;;;;;1.38;0.70;;;17.60;90.10;;;;;;5092922;28;20032;-60
2021/10/03 05:09:27;;;;;;;0.70;0.68;;;17.60;90.10;;;;;;5092595;28;20078;-60
2021/10/03 05:11:53;;;;;;;2.25;0.90;;;17.60;90.20;;;;;;5092438;28;20075;-60
2021/10/03 05:14:19;;;;;;;0.50;0.50;;;17.70;90.20;;;;;;5092519;28;20040;-60
2021/10/03 05:16:45;;;;;;;1.85;1.05;;;17.70;90.30;;;;;;5092903;28;20040;-60
2021/10/03 05:19:11;;;;;;;0.60;0.60;;;17.70;90.30;;;;;;5092491;28;20055;-60
2021/10/03 05:21:36;;;;;;;0.60;0.60;;;17.70;90.30;;;;;;5093296;28;20043;-59
2021/10/03 05:24:03;;;;;;;0.80;0.80;;;17.70;90.30;;;;;;5091203;28;20587;-60
2021/10/03 05:26:28;;;;;;;0.88;0.80;;;17.70;90.30;;;;;;5092805;28;20044;-59
2021/10/03 05:28:54;;;;;;;0.45;0.45;;;17.70;90.60;;;;;;5092601;28;20044;-59
2021/10/03 05:31:20;;;;;;;0.75;0.60;;;17.70;90.30;;;;;;5092756;28;20048;-60
2021/10/03 05:33:46;;;;;;;0.95;0.70;;;17.70;90.30;;;;;;5092285;28;20384;-59
2021/10/03 05:36:12;;;;;;;0.63;0.63;;;17.70;90.30;;;;;;5092443;28;20056;-59
2021/10/03 05:38:37;;;;;;;0.70;0.65;;;17.70;90.30;;;;;;5092269;28;20036;-59
2021/10/03 05:41:03;;;;;;;0.60;0.60;;;17.70;90.30;;;;;;5092810;28;20050;-59
2021/10/03 05:43:29;;;;;;;0.57;0.57;;;17.70;90.30;;;;;;5091530;28;20050;-59
2021/10/03 05:45:54;;;;;;;0.57;0.57;;;17.70;90.30;;;;;;5092006;28;20518;-59
2021/10/03 05:48:21;;;;;;;0.68;0.60;;;17.70;90.40;;;;;;5092690;28;20043;-60
2021/10/03 05:50:47;;;;;;;0.68;0.68;;;17.70;90.40;;;;;;5091676;28;20051;-59
2021/10/03 05:53:13;;;;;;;0.60;0.60;;;17.70;90.40;;;;;;5091280;28;20043;-58
2021/10/03 05:55:39;;;;;;;0.70;0.70;;;17.70;90.40;;;;;;5089768;28;20105;-59
2021/10/03 05:58:04;;;;;;;0.68;0.68;;;17.80;90.40;;;;;;5091212;28;20036;-59
2021/10/03 06:00:30;;;;;;;0.68;0.68;;;17.70;90.40;;;;;;5091787;28;20159;-59
2021/10/03 06:02:56;;;;;;;0.65;0.60;;;17.70;90.40;;;;;;5092059;28;20047;-58
2021/10/03 06:05:22;;;;;;;0.60;0.50;;;17.70;90.40;;;;;;5091872;28;20070;-60
2021/10/03 06:07:47;;;;;;;2.50;1.25;;;17.70;90.40;;;;;;5091434;28;20044;-60
2021/10/03 06:10:13;;;;;;;0.73;0.73;;;17.70;90.40;;;;;;5091963;28;20078;-59
2021/10/03 06:12:39;;;;;;;0.85;0.75;;;17.70;90.40;;;;;;5091696;28;20044;-59
2021/10/03 06:15:05;;;;;;;0.82;0.80;;;17.70;90.40;;;;;;5089975;28;20055;-57
2021/10/03 06:17:31;;;;;;;1.13;0.70;;;17.70;90.40;;;;;;5091933;28;20171;-59
2021/10/03 06:19:57;;;;;;;1.40;0.80;;;17.70;90.40;;;;;;5092360;28;20071;-58
2021/10/03 06:22:25;;;;;;;0.88;0.75;;;17.70;90.40;;;;;;5091845;28;20051;-59
2021/10/03 06:24:52;;;;;;;1.75;0.95;;;17.70;90.40;;;;;;5091685;28;20044;-59
2021/10/03 06:27:18;;;;;;;0.65;0.60;;;17.70;90.40;;;;;;5091334;28;20420;-59
2021/10/03 06:29:44;;;;;;;0.90;0.80;;;17.70;90.40;;;;;;5091362;28;20040;-59
2021/10/03 06:32:10;;;;;;;0.70;0.70;;;17.70;90.40;;;;;;5091843;28;20043;-59
2021/10/03 06:34:35;;;;;;;0.98;0.80;;;17.70;90.40;;;;;;5089703;28;20052;-59
2021/10/03 06:37:01;;;;;;;1.15;0.70;;;17.70;90.40;;;;;;5091900;28;20101;-59
2021/10/03 06:39:27;;;;;;;0.60;0.57;;;17.70;90.40;;;;;;5090384;28;20640;-59
2021/10/03 06:41:52;;;;;;;0.85;0.50;;;17.70;90.40;;;;;;5091720;28;20127;-58
2021/10/03 06:44:18;;;;;;;2.28;1.00;;;17.70;90.40;;;;;;5091872;28;20036;-59
2021/10/03 06:46:44;;;;;;;0.95;0.88;;;17.70;90.40;;;;;;5090560;28;20052;-58
2021/10/03 06:49:10;;;;;;;0.70;0.70;;;17.70;90.30;;;;;;5091622;28;20087;-59
2021/10/03 06:51:35;;;;;;;0.85;0.50;;;17.70;90.30;;;;;;5091245;28;20051;-57
2021/10/03 06:54:02;;;;;;;0.80;0.70;;;17.70;90.30;;;;;;5091974;28;20047;-59
2021/10/03 06:56:27;;;;;;;0.65;0.50;;;17.70;90.30;;;;;;5091834;28;20047;-58
2021/10/03 06:58:53;;;;;;;1.77;0.60;;;17.70;90.30;;;;;;5091800;28;20111;-58
2021/10/03 07:01:19;;;;;;;0.50;0.50;;;17.70;90.40;;;;;;5072980;28;20369;-58
2021/10/03 07:03:44;;;;;;;0.85;0.70;;;17.70;90.30;;;;;;5095410;28;20395;-58
2021/10/03 07:06:11;;;;;;;0.75;0.75;;;17.70;90.40;;;;;;5093946;28;20055;-58
2021/10/03 07:08:37;;;;;;;1.67;0.80;;;17.70;90.30;;;;;;5094534;28;20119;-59
2021/10/03 07:11:03;;;;;;;3.45;0.65;;;17.70;90.30;;;;;;5094799;28;20234;-58
2021/10/03 07:13:29;;;;;;;1.00;0.80;;;17.70;90.60;;;;;;5094737;28;20051;-59
2021/10/03 07:15:55;;;;;;;0.50;0.50;;;17.70;90.30;;;;;;5095217;28;20036;-59
2021/10/03 07:18:21;;;;;;;0.93;0.55;;;17.70;90.30;;;;;;5094464;28;20044;-58
2021/10/03 07:20:47;;;;;;;1.67;0.68;;;17.70;90.30;;;;;;5094470;28;20453;-58
2021/10/03 07:23:13;;;;;;;0.50;0.50;;;17.70;90.30;;;;;;5094967;28;20047;-59
2021/10/03 07:25:38;;;;;;;0.73;0.70;;;17.70;90.30;;;;;;5094647;28;20075;-59
2021/10/03 07:28:04;;;;;;;0.75;0.55;;;17.70;90.20;;;;;;5094785;28;20043;-58
2021/10/03 07:30:30;;;;;;;0.60;0.60;;;17.70;90.20;;;;;;5094845;28;20101;-59
2021/10/03 07:32:56;;;;;;;0.82;0.60;;;17.70;90.20;;;;;;5088943;28;20178;-57
2021/10/03 07:35:21;;;;;;;1.10;0.70;;;17.70;90.20;;;;;;5090057;28;20040;-58
2021/10/03 07:37:48;;;;;;;1.40;0.77;;;17.70;90.20;;;;;;5093114;28;20036;-58
2021/10/03 07:40:15;;;;;;;0.70;0.60;;;17.70;90.20;;;;;;5084182;28;20475;-58
2021/10/03 07:42:42;;;;;;;0.60;0.60;;;17.70;90.30;;;;;;5074446;28;20468;-58
2021/10/03 07:45:09;;;;;;;0.50;0.50;;;17.70;90.30;;;;;;5073960;28;20036;-59
2021/10/03 07:47:35;;;;;;;0.40;0.40;;;17.70;90.40;;;;;;5080244;28;20051;-57
2021/10/03 07:50:00;;;;;;;3.28;1.00;;;17.70;90.40;;;;;;5093758;28;20103;-57
2021/10/03 07:52:26;;;;;;;2.40;1.17;;;17.70;90.40;;;;;;5094333;28;20372;-57
2021/10/03 07:54:52;;;;;;;1.83;1.00;;;17.60;90.60;;;;;;5093559;28;20492;-58
2021/10/03 07:57:18;;;;;;;4.35;1.15;;;17.60;90.80;;;;;;5093362;28;20163;-57
2021/10/03 07:59:44;;;;;;;1.88;1.05;;;17.60;91.00;;;;;;5094694;28;20507;-57
2021/10/03 08:02:09;;;;;;;2.63;1.00;;;17.60;91.10;;;;;;5093337;28;20044;-57
2021/10/03 08:04:35;;;;;;;2.78;1.02;;;17.60;91.30;;;;;;5093718;28;20043;-57
2021/10/03 08:07:01;;;;;;;2.08;1.00;;;17.60;91.40;;;;;;5093865;28;20044;-57
2021/10/03 08:09:26;;;;;;;2.42;1.00;;;17.50;91.50;;;;;;5094043;28;20053;-58
2021/10/03 08:11:54;;;;;;;2.17;1.02;;;17.50;91.60;;;;;;5093038;28;20438;-59
2021/10/03 08:14:20;;;;;;;2.28;1.00;;;17.50;91.70;;;;;;5093741;28;20052;-58
2021/10/03 08:16:46;;;;;;;1.63;0.80;;;17.50;91.80;;;;;;5082167;28;20103;-57
2021/10/03 08:19:12;;;;;;;1.17;0.70;;;17.50;91.90;;;;;;5093888;28;20058;-58
2021/10/03 08:21:37;;;;;;;0.75;0.75;;;17.40;91.90;;;;;;5092574;28;20090;-58
2021/10/03 08:24:04;;;;;;;2.08;0.60;;;17.40;92.00;;;;;;5093943;28;20496;-58
2021/10/03 08:26:30;;;;;;;0.73;0.70;;;17.40;92.00;;;;;;5092842;28;20048;-58
2021/10/03 08:28:55;;;;;;;2.17;0.90;;;17.40;92.00;;;;;;5091970;28;20059;-57
2021/10/03 08:31:21;;;;;;;0.60;0.60;;;17.40;92.00;;;;;;5093393;28;20040;-58
2021/10/03 08:33:47;;;;;;;0.70;0.70;;;17.40;92.00;;;;;;5091311;28;20093;-58
2021/10/03 08:36:13;;;;;;;0.63;0.63;;;17.40;92.10;;;;;;5093220;28;20143;-57
2021/10/03 08:38:39;;;;;;;0.65;0.60;;;17.40;92.10;;;;;;5093321;28;20060;-57
2021/10/03 08:41:04;;;;;;;0.38;0.38;;;17.40;92.10;;;;;;5091817;28;20118;-57
2021/10/03 08:43:30;;;;;;;0.63;0.63;;;17.40;92.10;;;;;;5093497;28;20104;-57
2021/10/03 08:45:57;;;;;;;0.52;0.52;;;17.30;92.00;;;;;;5093783;28;20040;-57
2021/10/03 08:48:24;;;;;;;0.55;0.55;;;17.40;92.00;;;;;;5090090;28;20134;-57
2021/10/03 08:50:50;;;;;;;0.77;0.75;;;17.40;92.00;;;;;;5089871;28;20040;-58
2021/10/03 08:53:17;;;;;;;0.68;0.55;;;17.40;92.00;;;;;;5089472;28;20154;-58
2021/10/03 08:55:44;;;;;;;0.55;0.52;;;17.40;92.00;;;;;;5089958;28;20047;-58
2021/10/03 08:58:10;;;;;;;0.60;0.60;;;17.40;92.00;;;;;;5089725;28;20115;-57
2021/10/03 09:00:45;;;;;;;0.55;0.55;;;17.40;91.90;;;;;;5089450;28;20621;-58
2021/10/03 09:03:12;;;;;;;0.65;0.65;;;17.50;91.90;;;;;;5089861;28;20052;-58
2021/10/03 09:05:45;;;;;;;0.50;0.50;;;17.50;91.90;;;;;;5089368;28;20494;-58
2021/10/03 09:08:14;;;;;;;0.60;0.60;;;17.50;91.80;;;;;;5089225;28;20181;-57
2021/10/03 09:10:43;;;;;;;1.30;0.70;;;17.50;91.80;;;;;;5088634;28;20054;-58
2021/10/03 09:13:09;;;;;;;0.57;0.57;;;17.50;91.80;;;;;;5089953;28;20079;-59
2021/10/03 09:15:34;;;;;;;0.40;0.40;;;17.50;91.80;;;;;;5089502;28;20098;-59
2021/10/03 09:18:00;;;;;;;0.45;0.45;;;17.50;91.70;;;;;;5089390;28;20048;-58
2021/10/03 09:20:27;;;;;;;1.02;0.52;;;17.50;91.70;;;;;;5089136;28;20048;-59
2021/10/03 09:23:01;;;;;;;0.68;0.65;;;17.50;91.60;;;;;;5088673;28;20522;-57
2021/10/03 09:25:40;;;;;;;0.30;0.30;;;17.50;91.60;;;;;;5088205;28;20352;-58
2021/10/03 09:28:10;;;;;;;0.60;0.40;;;17.50;91.50;;;;;;5089087;28;20055;-57
2021/10/03 09:30:50;;;;;;;0.70;0.50;;;17.50;91.50;;;;;;5089192;28;20040;-58
2021/10/03 09:33:16;;;;;;;1.50;0.55;;;17.50;91.50;;;;;;5088000;28;20052;-60
2021/10/03 09:35:57;;;;;;;0.90;0.77;;;17.50;91.40;;;;;;5089694;28;20051;-59
2021/10/03 09:38:24;;;;;;;0.60;0.60;;;17.60;91.40;;;;;;5088208;28;20051;-59
2021/10/03 09:41:04;;;;;;;0.52;0.50;;;17.50;91.40;;;;;;5088867;28;20107;-59
2021/10/03 09:43:48;;;;;;;0.30;0.30;;;17.60;91.40;;;;;;5089126;28;20512;-60
2021/10/03 09:46:34;;;;;;;0.85;0.50;;;17.60;91.30;;;;;;5089393;28;20087;-58
2021/10/03 09:49:02;;;;;;;0.77;0.55;;;17.60;91.30;;;;;;5087768;28;20052;-58
2021/10/03 09:51:28;;;;;;;0.50;0.50;;;17.60;91.30;;;;;;5089035;28;20097;-59
2021/10/03 09:53:54;;;;;;;0.60;0.60;;;17.60;91.20;;;;;;5074003;28;20033;-59
2021/10/03 09:56:20;;;;;;;0.43;0.43;;;17.60;91.20;;;;;;5088564;28;20097;-59
2021/10/03 09:58:46;;;;;;;0.47;0.47;;;17.60;91.10;;;;;;5088708;28;20036;-58
2021/10/03 10:01:13;;;;;;;0.35;0.35;;;17.60;91.10;;;;;;5088550;28;20527;-59
2021/10/03 10:03:40;;;;;;;0.30;0.30;;;17.60;91.10;;;;;;5090317;28;20468;-59
2021/10/03 10:06:06;;;;;;;0.50;0.40;;;17.60;91.10;;;;;;5092237;28;20040;-58
2021/10/03 10:08:34;;;;;;;0.65;0.38;;;17.60;91.10;;;;;;5092081;28;20040;-59
2021/10/03 10:11:15;;;;;;;0.40;0.40;;;17.60;91.10;;;;;;5090842;28;20032;-60
2021/10/03 10:13:41;;;;;;;0.40;0.40;;;17.60;91.00;;;;;;5091770;28;20097;-59
2021/10/03 10:16:25;;;;;;;0.40;0.40;;;17.60;91.00;;;;;;5086625;28;20044;-58
2021/10/03 10:18:51;;;;;;;0.52;0.52;;;17.60;90.90;;;;;;5088232;28;20070;-58
2021/10/03 10:21:23;;;;;;;0.40;0.40;;;17.60;90.90;;;;;;5086706;28;20055;-58
2021/10/03 10:23:49;;;;;;;0.35;0.30;;;17.50;90.90;;;;;;5087359;28;20055;-58
2021/10/03 10:26:37;;;;;;;0.40;0.40;;;17.60;90.90;;;;;;5087783;28;20048;-60
2021/10/03 10:29:03;;;;;;;0.45;0.30;;;17.60;90.90;;;;;;5087881;28;20060;-58
2021/10/03 10:31:32;;;;;;;0.40;0.40;;;17.60;90.90;;;;;;5088181;28;20073;-60
2021/10/03 10:34:02;;;;;;;0.38;0.38;;;17.60;90.90;;;;;;5088296;28;20131;-58
2021/10/03 10:36:29;;;;;;;0.50;0.50;;;17.60;90.80;;;;;;5089135;28;20043;-59
2021/10/03 10:39:07;;;;;;;0.50;0.50;;;17.60;90.80;;;;;;5095736;28;20040;-60
2021/10/03 10:41:52;;;;;;;0.50;0.50;;;17.60;90.80;;;;;;5094712;28;20491;-66
2021/10/03 10:44:36;;;;;;;1.30;0.80;;;17.60;89.90;;;;;;5096409;28;20365;-63
2021/10/03 10:47:19;;;;;;;1.07;0.70;;;17.50;89.60;;;;;;5096742;28;20124;-64
2021/10/03 10:49:45;;;;;;;2.63;0.80;;;17.40;90.10;;;;;;5096679;28;20048;-61
2021/10/03 10:52:19;;;;;;;2.13;0.82;;;17.40;90.20;;;;;;5096686;28;20040;-64
2021/10/03 10:55:09;;;;;;;1.73;0.63;;;17.40;90.30;;;;;;5096099;28;20123;-62
2021/10/03 10:58:00;;;;;;;1.30;0.90;;;17.40;90.40;;;;;;5096218;28;20052;-62
2021/10/03 11:00:29;;;;;;;2.50;0.80;;;17.40;90.40;;;;;;5093706;28;20052;-61
2021/10/03 11:02:55;;;;;;;2.60;0.68;;;17.40;90.40;;;;;;5096338;28;20048;-62
2021/10/03 11:05:36;;;;;;;2.15;0.95;;;17.40;90.40;;;;;;5095808;28;20110;-63
2021/10/03 11:08:09;;;;;;;1.45;0.70;;;17.40;90.40;;;;;;5096207;28;20052;-63
2021/10/03 11:10:59;;;;;;;1.15;0.85;;;17.40;90.50;;;;;;5096206;28;20051;-62
2021/10/03 11:13:46;;;;;;;1.90;0.75;;;17.40;90.50;;;;;;5095574;28;20040;-62
2021/10/03 11:16:25;;;;;;;2.15;0.80;;;17.40;90.50;;;;;;5095373;28;20090;-63
2021/10/03 11:18:57;;;;;;;1.85;0.80;;;17.40;90.50;;;;;;5096082;28;20052;-63
2021/10/03 11:21:24;;;;;;;2.40;0.85;;;17.50;90.60;;;;;;5095831;28;20086;-61
2021/10/03 11:23:54;;;;;;;1.60;0.47;;;17.50;90.70;;;;;;5095745;28;20051;-62
2021/10/03 11:26:21;;;;;;;1.58;0.77;;;17.50;90.60;;;;;;5095219;28;20101;-61
2021/10/03 11:28:55;;;;;;;2.75;1.08;;;17.50;90.70;;;;;;5095458;28;20064;-63
2021/10/03 11:31:44;;;;;;;1.42;0.80;;;17.50;90.70;;;;;;5094181;28;20039;-62
2021/10/03 11:34:23;;;;;;;1.08;0.88;;;17.50;90.70;;;;;;5095515;28;20499;-62
2021/10/03 11:36:49;;;;;;;1.95;0.77;;;17.50;90.70;;;;;;5094907;28;20438;-63
2021/10/03 11:39:16;;;;;;;2.15;0.63;;;17.50;90.70;;;;;;5095532;28;20048;-62
2021/10/03 11:41:49;;;;;;;2.67;0.73;;;17.50;90.70;;;;;;5095354;28;20083;-62
2021/10/03 11:44:22;;;;;;;3.00;1.00;;;17.50;90.70;;;;;;5093910;28;20511;-62
2021/10/03 11:46:56;;;;;;;1.17;0.88;;;17.50;90.80;;;;;;5094494;28;20083;-62
2021/10/03 11:49:42;;;;;;;1.80;0.73;;;17.40;90.80;;;;;;5093994;28;20046;-63
2021/10/03 11:52:13;;;;;;;0.85;0.52;;;17.50;90.80;;;;;;5093935;28;20451;-63
2021/10/03 11:54:47;;;;;;;1.05;0.52;;;17.50;90.90;;;;;;5095309;28;20042;-62
2021/10/03 11:57:21;;;;;;;0.73;0.52;;;17.50;90.90;;;;;;5094837;28;20067;-62
2021/10/03 11:59:48;;;;;;;1.08;0.50;;;17.50;91.00;;;;;;5093844;28;20054;-62
2021/10/03 12:02:17;;;;;;;0.40;0.40;;;17.40;91.00;;;;;;5094594;28;20058;-62
2021/10/03 12:04:54;;;;;;;1.58;0.52;;;17.50;91.00;;;;;;5094902;28;20044;-62
2021/10/03 12:07:20;;;;;;;0.95;0.60;;;17.50;90.90;;;;;;5093374;28;20071;-63
2021/10/03 12:10:21;;;;;;;1.00;0.57;;;17.50;90.90;;;;;;5094778;28;20515;-62
2021/10/03 12:12:47;;;;;;;1.63;0.70;;;17.50;90.80;;;;;;5072431;28;20037;-63
2021/10/03 12:16:01;;;;;;;1.10;0.63;;;17.50;90.90;;;;;;5072167;28;20080;-62
2021/10/03 12:18:30;;;;;;;1.42;0.73;;;17.50;90.80;;;;;;4992098;28;20046;-62
2021/10/03 12:21:00;;;;;;;0.45;0.45;;;17.50;90.90;;;;;;4991523;28;20412;-61
2021/10/03 12:23:44;;;;;;;1.15;0.50;;;17.50;91.00;;;;;;4992630;28;20054;-61
2021/10/03 12:26:17;;;;;;;0.52;0.50;;;17.50;90.80;;;;;;4976575;28;20125;-62
2021/10/03 12:28:52;;;;;;;1.13;0.70;;;17.50;90.80;;;;;;4992365;28;20088;-62
2021/10/03 12:31:33;;;;;;;1.73;0.68;;;17.60;90.80;;;;;;4976265;28;20050;-62
2021/10/03 12:33:58;;;;;;;1.27;0.57;;;17.50;90.80;;;;;;4992361;28;20056;-62
2021/10/03 12:36:24;;;;;;;0.52;0.50;;;17.50;90.80;;;;;;4992650;28;20125;-59
2021/10/03 12:38:50;;;;;;;1.30;0.60;;;17.50;90.80;;;;;;4992615;28;20511;-63
2021/10/03 12:41:15;;;;;;;1.30;0.47;;;17.60;90.80;;;;;;4992256;28;20054;-61
2021/10/03 12:43:49;;;;;;;1.15;0.50;;;17.60;90.80;;;;;;4992185;28;20051;-62
2021/10/03 12:46:15;;;;;;;1.48;0.88;;;17.60;90.80;;;;;;5003577;28;20049;-61
2021/10/03 12:48:40;;;;;;;1.65;0.50;;;17.60;90.90;;;;;;5046304;28;20048;-62
2021/10/03 12:51:06;;;;;;;0.47;0.40;;;17.50;90.80;;;;;;5080998;28;20123;-61
2021/10/03 12:53:32;;;;;;;0.57;0.43;;;17.60;90.90;;;;;;5094060;28;20408;-62